createdAt,value
2023-02-23T00:02:52.288Z,7.30
2023-02-23T00:07:56.116Z,6.90
2023-02-23T00:12:59.592Z,7.60
2023-02-23T00:18:04.672Z,8.40
2023-02-23T00:23:07.571Z,7.30
2023-02-23T00:28:10.454Z,7.70
2023-02-23T00:33:13.495Z,7.80
2023-02-23T00:38:16.373Z,7.70
2023-02-23T00:43:20.145Z,8.20
2023-02-23T00:48:22.987Z,8.80
2023-02-23T00:53:27.390Z,7.20
2023-02-23T00:58:31.510Z,8.10
2023-02-23T01:03:34.552Z,8.30
2023-02-23T01:08:44.227Z,8.30
2023-02-23T01:13:48.688Z,9.20
2023-02-23T01:18:51.725Z,9.30
2023-02-23T01:23:55.438Z,11.00
2023-02-23T01:29:02.278Z,9.50
2023-02-23T01:34:06.566Z,10.70
2023-02-23T01:39:17.571Z,10.10
2023-02-23T01:44:20.406Z,11.10
2023-02-23T01:49:29.728Z,11.80
2023-02-23T01:54:42.526Z,9.00
2023-02-23T01:59:49.133Z,7.80
2023-02-23T02:04:52.458Z,9.60
2023-02-23T02:10:13.822Z,8.90
2023-02-23T02:15:19.771Z,9.10
2023-02-23T02:21:21.031Z,9.00
2023-02-23T02:27:21.769Z,8.70
2023-02-23T02:32:55.441Z,8.50
2023-02-23T02:38:36.194Z,9.20
2023-02-23T02:44:17.901Z,9.30
2023-02-23T02:49:27.820Z,10.10
2023-02-23T02:54:44.131Z,10.80
2023-02-23T03:00:08.551Z,9.70
2023-02-23T03:05:35.497Z,9.80
2023-02-23T03:11:17.677Z,10.50
2023-02-23T03:16:48.391Z,10.90
2023-02-23T03:22:26.134Z,10.70
2023-02-23T03:27:53.679Z,10.20
2023-02-23T03:33:22.851Z,10.90
2023-02-23T03:39:16.905Z,10.60
2023-02-23T03:44:48.195Z,11.20
2023-02-23T03:50:10.078Z,11.20
2023-02-23T03:55:40.100Z,9.40
2023-02-23T04:01:08.631Z,10.00
2023-02-23T04:06:34.392Z,8.40
2023-02-23T04:12:23.075Z,9.10
2023-02-23T04:17:29.031Z,11.20
2023-02-23T04:22:31.943Z,9.70
2023-02-23T04:27:36.513Z,11.90
2023-02-23T04:32:39.566Z,10.20
2023-02-23T04:37:42.583Z,10.80
2023-02-23T04:42:45.493Z,9.80
2023-02-23T04:47:48.496Z,8.40
2023-02-23T04:52:53.331Z,12.40
2023-02-23T04:58:02.034Z,12.00
2023-02-23T05:03:05.101Z,12.90
2023-02-23T05:08:07.994Z,12.70
2023-02-23T05:13:11.075Z,11.40
2023-02-23T05:18:14.004Z,10.70
2023-02-23T05:23:16.905Z,10.80
2023-02-23T05:28:19.789Z,11.20
2023-02-23T05:33:22.654Z,12.90
2023-02-23T05:38:27.287Z,12.70
2023-02-23T05:43:30.164Z,9.80
2023-02-23T05:48:34.075Z,12.90
2023-02-23T05:58:39.941Z,11.70
2023-02-23T06:03:43.015Z,11.60
2023-02-23T06:08:46.244Z,10.50
2023-02-23T06:13:49.758Z,12.90
2023-02-23T06:18:52.640Z,14.00
2023-02-23T06:23:55.580Z,11.80
2023-02-23T06:28:58.507Z,12.70
2023-02-23T06:34:01.388Z,10.00
2023-02-23T06:39:04.934Z,10.30
2023-02-23T06:44:07.817Z,8.10
2023-02-23T06:49:12.320Z,8.30
2023-02-23T06:54:16.241Z,7.90
2023-02-23T07:04:22.061Z,6.80
2023-02-23T07:09:25.253Z,7.20
2023-02-23T07:14:28.349Z,6.40
2023-02-23T07:19:32.516Z,7.20
2023-02-23T07:24:35.440Z,8.10
2023-02-23T07:29:38.370Z,8.80
2023-02-23T07:34:41.286Z,12.10
2023-02-23T07:39:44.334Z,11.00
2023-02-23T07:44:47.327Z,10.70
2023-02-23T07:49:50.251Z,8.50
2023-02-23T07:54:53.273Z,7.30
2023-02-23T07:59:56.241Z,7.50
2023-02-23T08:05:00.154Z,6.20
2023-02-23T08:10:03.855Z,5.50
2023-02-23T08:15:08.387Z,7.00
2023-02-23T08:20:11.687Z,6.40
2023-02-23T08:25:14.644Z,6.00
2023-02-23T08:30:19.969Z,5.30
2023-02-23T08:35:23.004Z,6.50
2023-02-23T08:40:26.262Z,6.20
2023-02-23T08:45:29.466Z,6.20
2023-02-23T08:50:32.486Z,6.40
2023-02-23T08:55:35.722Z,6.30
2023-02-23T09:00:38.889Z,5.90
2023-02-23T09:05:41.808Z,5.20
2023-02-23T09:10:45.164Z,5.90
2023-02-23T09:15:48.242Z,6.80
2023-02-23T09:20:51.289Z,13.90
2023-02-23T09:25:54.156Z,8.50
2023-02-23T09:30:57.761Z,17.50
2023-02-23T09:36:00.855Z,20.20
2023-02-23T09:41:07.188Z,45.90
2023-02-23T09:46:34.063Z,17.10
2023-02-23T09:51:42.181Z,26.00
2023-02-23T09:56:49.895Z,11.90
2023-02-23T10:02:05.566Z,7.80
2023-02-23T10:07:21.568Z,14.10
2023-02-23T10:12:50.364Z,16.50
2023-02-23T10:18:46.542Z,22.90
2023-02-23T10:24:04.036Z,16.50
2023-02-23T10:29:21.171Z,29.60
2023-02-23T10:34:26.887Z,21.90
2023-02-23T10:39:32.563Z,52.20
2023-02-23T10:44:35.539Z,49.40
2023-02-23T10:49:46.958Z,75.40
2023-02-23T10:54:51.870Z,46.30
2023-02-23T11:00:33.050Z,15.20
2023-02-23T11:05:53.011Z,13.10
2023-02-23T11:11:01.287Z,11.70
2023-02-23T11:16:13.483Z,14.40
2023-02-23T11:21:33.840Z,18.00
2023-02-23T11:26:43.514Z,10.00
2023-02-23T11:31:58.810Z,13.80
2023-02-23T11:37:31.203Z,15.30
2023-02-23T11:42:34.142Z,42.30
2023-02-23T11:47:44.674Z,121.50
2023-02-23T11:53:02.813Z,28.70
2023-02-23T11:58:32.337Z,27.70
2023-02-23T12:03:36.471Z,34.30
2023-02-23T12:08:49.094Z,26.00
2023-02-23T12:14:12.553Z,31.30
2023-02-23T12:30:18.392Z,22.50
2023-02-23T12:35:31.112Z,20.10
2023-02-23T12:40:39.027Z,13.10
2023-02-23T12:46:23.158Z,44.80
2023-02-23T12:51:51.701Z,14.90
2023-02-23T12:57:11.319Z,16.30
2023-02-23T13:02:38.963Z,31.20
2023-02-23T13:08:14.755Z,24.90
2023-02-23T13:13:50.573Z,18.70
2023-02-23T13:19:05.951Z,17.20
2023-02-23T13:24:19.463Z,21.50
2023-02-23T13:29:36.313Z,40.10
2023-02-23T13:34:52.713Z,29.60
2023-02-23T13:40:01.537Z,25.70
2023-02-23T13:45:25.596Z,23.00
2023-02-23T13:50:46.659Z,61.30
2023-02-23T13:55:51.819Z,33.50
2023-02-23T14:01:39.596Z,24.40
2023-02-23T14:07:03.964Z,52.90
2023-02-23T14:12:40.297Z,43.20
2023-02-23T14:17:44.282Z,124.70
2023-02-23T14:23:21.039Z,79.20
2023-02-23T14:28:33.848Z,57.30
2023-02-23T14:33:42.761Z,28.00
2023-02-23T14:38:48.220Z,57.70
2023-02-23T14:44:12.267Z,37.00
2023-02-23T14:49:22.690Z,47.70
2023-02-23T14:54:40.746Z,27.80
2023-02-23T14:59:44.362Z,36.60
2023-02-23T15:04:47.465Z,26.80
2023-02-23T15:09:56.204Z,40.70
2023-02-23T15:15:02.451Z,43.30
2023-02-23T15:20:16.622Z,48.30
2023-02-23T15:25:39.673Z,58.00
2023-02-23T15:30:48.710Z,58.00
2023-02-23T15:36:13.617Z,46.50
2023-02-23T15:41:33.147Z,60.80
2023-02-23T15:46:37.884Z,55.40
2023-02-23T15:51:48.784Z,57.20
2023-02-23T15:56:58.743Z,40.70
2023-02-23T16:02:03.861Z,72.60
2023-02-23T16:07:28.179Z,112.00
2023-02-23T16:12:36.373Z,80.70
2023-02-23T16:17:46.505Z,55.10
2023-02-23T16:22:53.624Z,46.30
2023-02-23T16:28:03.375Z,61.60
2023-02-23T16:33:12.220Z,176.10
2023-02-23T16:38:35.945Z,236.00
2023-02-23T16:43:38.840Z,189.10
2023-02-23T16:48:41.763Z,94.40
2023-02-23T16:53:45.070Z,74.80
2023-02-23T16:59:01.067Z,69.20
2023-02-23T17:04:03.977Z,71.20
2023-02-23T17:09:06.874Z,75.80
2023-02-23T17:14:21.910Z,100.70
2023-02-23T17:19:26.014Z,75.40
2023-02-23T17:24:29.156Z,115.90
2023-02-23T17:29:32.232Z,117.10
2023-02-23T17:34:35.941Z,119.70
2023-02-23T17:39:41.009Z,124.70
2023-02-23T17:44:44.284Z,107.50
2023-02-23T17:49:47.524Z,172.90
2023-02-23T17:54:50.537Z,89.30
2023-02-23T17:59:53.572Z,85.30
2023-02-23T18:04:56.441Z,101.70
2023-02-23T18:09:59.332Z,116.30
2023-02-23T18:15:02.298Z,94.20
2023-02-23T18:20:06.813Z,110.40
2023-02-23T18:25:25.584Z,133.50
2023-02-23T18:30:28.477Z,156.90
2023-02-23T18:35:41.693Z,84.60
2023-02-23T18:40:45.320Z,70.00
2023-02-23T18:45:48.177Z,52.70
2023-02-23T18:50:56.737Z,43.00
2023-02-23T18:56:05.922Z,51.60
2023-02-23T19:01:21.239Z,172.50
2023-02-23T19:06:25.185Z,262.10
2023-02-23T19:11:32.153Z,76.80
2023-02-23T19:16:35.478Z,83.80
2023-02-23T19:21:38.975Z,66.70
2023-02-23T19:26:41.964Z,65.70
2023-02-23T19:31:45.086Z,33.80
2023-02-23T19:36:48.320Z,45.10
2023-02-23T19:41:51.202Z,81.00
2023-02-23T19:46:54.099Z,51.90
2023-02-23T19:51:57.880Z,54.70
2023-02-23T19:57:00.791Z,79.10
2023-02-23T20:02:03.704Z,46.00
2023-02-23T20:07:07.598Z,57.20
2023-02-23T20:12:10.646Z,74.50
2023-02-23T20:17:13.879Z,80.20
2023-02-23T20:22:16.796Z,242.70
2023-02-23T20:27:22.670Z,78.50
2023-02-23T20:32:26.084Z,47.30
2023-02-23T20:37:29.043Z,57.40
2023-02-23T20:42:31.981Z,41.40
2023-02-23T20:47:35.222Z,32.10
2023-02-23T20:52:38.714Z,39.10
2023-02-23T20:57:41.812Z,29.10
2023-02-23T21:02:44.702Z,31.50
2023-02-23T21:07:49.380Z,34.00
2023-02-23T21:12:53.079Z,28.80
2023-02-23T21:17:57.709Z,42.90
2023-02-23T21:23:00.767Z,35.60
2023-02-23T21:28:03.663Z,30.80
2023-02-23T21:33:06.674Z,77.30
2023-02-23T21:38:10.517Z,65.70
2023-02-23T21:43:13.395Z,51.30
2023-02-23T21:48:16.247Z,69.80
2023-02-23T21:53:19.101Z,43.80
2023-02-23T21:58:23.102Z,81.90
2023-02-23T22:03:27.371Z,36.50
2023-02-23T22:08:30.269Z,36.00
2023-02-23T22:13:33.193Z,35.30
2023-02-23T22:18:36.131Z,38.90
2023-02-23T22:23:41.622Z,36.80
2023-02-23T22:28:45.005Z,34.10
2023-02-23T22:33:47.940Z,35.10
2023-02-23T22:38:51.038Z,36.10
2023-02-23T22:43:53.899Z,39.70
2023-02-23T22:48:56.753Z,31.30
2023-02-23T22:53:59.642Z,37.10
2023-02-23T22:59:08.686Z,34.50
2023-02-23T23:04:11.603Z,32.50
2023-02-23T23:09:16.556Z,29.40
2023-02-23T23:14:19.684Z,37.20
2023-02-23T23:19:25.862Z,34.90
2023-02-23T23:24:29.403Z,46.50
2023-02-23T23:29:32.638Z,37.50
2023-02-23T23:34:35.673Z,32.40
2023-02-23T23:39:38.529Z,33.10
2023-02-23T23:44:41.549Z,31.20
2023-02-23T23:49:45.389Z,35.80
2023-02-23T23:59:51.364Z,31.50
